Time;durP1;ratioP1;P1;durP2;ratioP2;P2;SDS_P1;SDS_P2;PMS_P1;PMS_P2;Temp;Humidity;BMP_temperature;BMP_pressure;BME280_temperature;BME280_humidity;BME280_pressure;Samples;Min_cycle;Max_cycle;Signal;HPM_P1;HPM_P2
2022/01/03 00:00:26;;;;;;;12.43;6.53;;;5.10;93.80;;;;;;5112460;28;20180;-74
2022/01/03 00:02:54;;;;;;;9.73;6.57;;;5.10;94.10;;;;;;5113297;28;20186;-75
2022/01/03 00:05:20;;;;;;;21.47;8.30;;;5.10;93.70;;;;;;5109507;28;20170;-75
2022/01/03 00:07:46;;;;;;;13.10;7.73;;;5.10;93.80;;;;;;5110435;28;20247;-73
2022/01/03 00:10:14;;;;;;;12.17;8.10;;;5.10;93.80;;;;;;5111552;28;20235;-74
2022/01/03 00:12:42;;;;;;;11.17;7.70;;;5.10;93.80;;;;;;5116876;28;20181;-74
2022/01/03 00:15:11;;;;;;;12.70;7.83;;;5.10;93.80;;;;;;5112762;28;20181;-75
2022/01/03 00:17:37;;;;;;;11.67;6.73;;;5.10;93.90;;;;;;5111687;28;20247;-75
2022/01/03 00:20:04;;;;;;;9.93;7.53;;;5.10;93.80;;;;;;5115365;27;20314;-75
2022/01/03 00:22:39;;;;;;;10.90;8.13;;;5.10;93.90;;;;;;5119471;27;20177;-75
2022/01/03 00:25:10;;;;;;;14.07;8.30;;;5.00;94.10;;;;;;5111136;27;20264;-73
2022/01/03 00:27:46;;;;;;;13.07;9.03;;;5.10;94.10;;;;;;5107590;27;20177;-75
2022/01/03 00:30:12;;;;;;;22.37;7.73;;;5.10;94.10;;;;;;5111552;27;20210;-74
2022/01/03 00:32:42;;;;;;;9.70;7.10;;;5.00;94.20;;;;;;5114323;27;20509;-74
2022/01/03 00:35:08;;;;;;;13.13;7.57;;;5.10;94.10;;;;;;5112139;27;20177;-75
2022/01/03 00:37:35;;;;;;;10.93;6.83;;;5.10;93.70;;;;;;5112979;27;20603;-75
2022/01/03 00:40:02;;;;;;;18.90;9.27;;;5.00;93.70;;;;;;5094660;27;20659;-75
2022/01/03 00:42:28;;;;;;;11.10;7.57;;;;;;;;;;5114887;27;20178;-75
2022/01/03 00:44:54;;;;;;;10.43;7.27;;;;;;;;;;5110997;27;20237;-74
2022/01/03 00:47:20;;;;;;;13.03;6.60;;;5.00;93.40;;;;;;5117257;27;20550;-74
2022/01/03 00:49:46;;;;;;;6.43;5.83;;;5.00;93.50;;;;;;5117675;27;20178;-74
2022/01/03 00:52:12;;;;;;;8.53;6.00;;;5.00;93.40;;;;;;5119773;27;20181;-74
2022/01/03 00:54:39;;;;;;;12.43;7.03;;;4.90;93.70;;;;;;5111452;27;20578;-74
2022/01/03 00:57:22;;;;;;;9.53;6.53;;;4.90;94.20;;;;;;5112475;27;20260;-74
2022/01/03 00:59:59;;;;;;;8.27;6.53;;;4.90;94.50;;;;;;5098080;27;20232;-75
2022/01/03 01:02:27;;;;;;;8.63;5.73;;;4.80;94.90;;;;;;5116902;27;20185;-74
2022/01/03 01:04:55;;;;;;;8.37;5.73;;;4.80;95.00;;;;;;5113041;27;20275;-75
2022/01/03 01:07:23;;;;;;;9.37;5.80;;;4.80;95.00;;;;;;5098367;27;20187;-74
2022/01/03 01:09:51;;;;;;;8.50;4.30;;;4.70;94.90;;;;;;5116943;27;20192;-74
2022/01/03 01:12:18;;;;;;;7.20;4.40;;;4.70;95.10;;;;;;5118882;27;20178;-74
2022/01/03 01:14:45;;;;;;;6.50;4.43;;;4.70;95.20;;;;;;5113092;27;20181;-74
2022/01/03 01:17:11;;;;;;;3.90;3.60;;;;;;;;;;5113434;27;20246;-73
2022/01/03 01:19:37;;;;;;;15.20;4.93;;;4.60;95.20;;;;;;5093444;27;20188;-74
2022/01/03 01:22:03;;;;;;;7.90;4.20;;;;;;;;;;5111168;27;20242;-73
2022/01/03 01:24:34;;;;;;;5.93;3.77;;;4.60;95.50;;;;;;5114658;27;20181;-75
2022/01/03 01:29:44;;;;;;;6.20;3.77;;;;;;;;;;5111426;27;20214;-74
2022/01/03 01:32:14;;;;;;;3.90;3.60;;;4.60;95.80;;;;;;5119345;27;20181;-75
2022/01/03 01:34:43;;;;;;;6.47;4.00;;;4.60;95.50;;;;;;5112974;27;20213;-74
2022/01/03 01:37:09;;;;;;;6.10;4.43;;;4.70;95.50;;;;;;5112797;27;20177;-74
2022/01/03 01:39:36;;;;;;;5.77;3.73;;;4.70;95.40;;;;;;5114158;27;20242;-74
2022/01/03 01:42:04;;;;;;;6.97;5.13;;;4.70;95.00;;;;;;5112018;27;20217;-75
2022/01/03 01:44:37;;;;;;;7.60;4.37;;;4.70;94.90;;;;;;5106793;27;20193;-75
2022/01/03 01:47:06;;;;;;;5.57;4.33;;;4.70;94.70;;;;;;5119336;27;20184;-75
2022/01/03 01:49:40;;;;;;;6.60;4.33;;;4.70;94.60;;;;;;5110298;27;20213;-75
2022/01/03 01:52:14;;;;;;;7.73;4.70;;;4.70;94.60;;;;;;5113374;27;20181;-75
2022/01/03 01:54:40;;;;;;;5.67;5.10;;;;;;;;;;5116945;27;20266;-74
2022/01/03 01:57:06;;;;;;;7.00;4.33;;;;;;;;;;5115161;27;20191;-74
2022/01/03 01:59:34;;;;;;;9.20;4.20;;;4.70;94.00;;;;;;5115592;27;20295;-74
2022/01/03 02:02:06;;;;;;;4.70;3.93;;;4.60;94.00;;;;;;5111933;27;20169;-74
2022/01/03 02:04:32;;;;;;;4.90;4.10;;;;;;;;;;5112575;27;20693;-74
2022/01/03 02:07:19;;;;;;;9.83;5.97;;;4.60;94.10;;;;;;5115039;27;20180;-74
2022/01/03 02:10:07;;;;;;;7.27;5.33;;;4.60;94.20;;;;;;5113160;27;20317;-74
2022/01/03 02:12:46;;;;;;;5.17;4.27;;;4.50;94.20;;;;;;5118728;27;20562;-75
2022/01/03 02:15:15;;;;;;;8.37;4.33;;;4.50;94.70;;;;;;5094019;28;20758;-75
2022/01/03 02:17:46;;;;;;;4.07;3.80;;;4.50;94.70;;;;;;5096857;27;20637;-75
2022/01/03 02:20:17;;;;;;;5.73;4.30;;;4.40;94.70;;;;;;5114291;27;20188;-75
2022/01/03 02:22:44;;;;;;;4.87;4.43;;;4.40;94.70;;;;;;5113281;27;20185;-73
2022/01/03 02:25:14;;;;;;;7.00;4.47;;;4.40;94.80;;;;;;5115330;27;20209;-73
2022/01/03 02:27:40;;;;;;;5.53;4.13;;;;;;;;;;5116158;27;20264;-74
2022/01/03 02:30:09;;;;;;;7.33;5.43;;;4.40;94.90;;;;;;5118213;27;20192;-73
2022/01/03 02:32:35;;;;;;;5.77;3.90;;;4.40;95.00;;;;;;5113444;27;20185;-73
2022/01/03 02:35:02;;;;;;;8.97;5.70;;;4.40;94.90;;;;;;5109727;27;20173;-73
2022/01/03 02:37:28;;;;;;;7.77;3.90;;;;;;;;;;5112880;27;20238;-76
2022/01/03 02:39:55;;;;;;;7.63;5.30;;;4.50;94.70;;;;;;5112814;27;20188;-74
2022/01/03 02:42:24;;;;;;;3.73;3.43;;;4.50;94.50;;;;;;5094369;27;20327;-75
2022/01/03 02:45:00;;;;;;;8.30;5.00;;;4.50;94.30;;;;;;5093465;27;20189;-75
2022/01/03 02:47:26;;;;;;;5.87;4.07;;;;;;;;;;5112434;27;20181;-75
2022/01/03 02:49:52;;;;;;;7.87;6.07;;;;;;;;;;5110542;27;20587;-74
2022/01/03 02:52:19;;;;;;;8.33;7.40;;;4.40;94.50;;;;;;5112660;27;20257;-75
2022/01/03 02:54:45;;;;;;;13.77;8.17;;;4.40;94.60;;;;;;5114569;27;20623;-75
2022/01/03 02:57:11;;;;;;;11.40;7.63;;;4.40;94.60;;;;;;5113080;27;20224;-75
2022/01/03 02:59:37;;;;;;;17.10;7.33;;;;;;;;;;5110858;27;20215;-76
2022/01/03 03:02:04;;;;;;;8.97;6.63;;;4.30;94.90;;;;;;5116135;27;20192;-76
2022/01/03 03:04:30;;;;;;;9.73;5.10;;;;;;;;;;5113659;27;20177;-75
2022/01/03 03:06:56;;;;;;;7.60;6.83;;;;;;;;;;5111051;27;20181;-75
2022/01/03 03:09:22;;;;;;;12.00;6.43;;;;;;;;;;5110002;27;20174;-74
2022/01/03 03:11:48;;;;;;;10.23;5.63;;;4.30;94.80;;;;;;5110479;27;20208;-75
2022/01/03 03:14:14;;;;;;;10.07;6.63;;;4.30;95.00;;;;;;5110116;27;20181;-74
2022/01/03 03:16:41;;;;;;;6.63;5.93;;;4.30;95.10;;;;;;5113075;27;20213;-75
2022/01/03 03:19:09;;;;;;;15.27;6.33;;;4.30;95.10;;;;;;5109515;27;20209;-73
2022/01/03 03:21:35;;;;;;;8.00;5.80;;;;;;;;;;5109099;27;20644;-74
2022/01/03 03:24:02;;;;;;;6.13;4.90;;;4.20;95.70;;;;;;5114001;27;20180;-75
2022/01/03 03:26:27;;;;;;;11.17;6.47;;;4.20;95.90;;;;;;5110475;27;20204;-73
2022/01/03 03:28:54;;;;;;;10.80;5.73;;;4.20;96.00;;;;;;5115498;27;20181;-73
2022/01/03 03:31:20;;;;;;;10.67;5.40;;;4.30;95.80;;;;;;5112254;27;20183;-74
2022/01/03 03:33:45;;;;;;;7.03;5.07;;;4.30;95.80;;;;;;5112547;27;20177;-74
2022/01/03 03:36:11;;;;;;;6.63;3.70;;;4.30;95.80;;;;;;5114464;27;20187;-74
2022/01/03 03:38:37;;;;;;;11.20;5.63;;;4.30;96.00;;;;;;5111888;27;20213;-73
2022/01/03 03:41:03;;;;;;;9.73;5.17;;;4.30;95.90;;;;;;5117212;27;20192;-74
2022/01/03 03:43:32;;;;;;;8.13;5.77;;;4.20;96.50;;;;;;5112195;27;20177;-74
2022/01/03 03:45:58;;;;;;;4.57;4.17;;;;;;;;;;5110212;27;20187;-75
2022/01/03 03:48:24;;;;;;;7.60;4.50;;;4.20;96.70;;;;;;5094306;27;20564;-74
2022/01/03 03:50:49;;;;;;;4.40;4.07;;;4.30;96.50;;;;;;5093588;28;20187;-74
2022/01/03 03:53:16;;;;;;;7.50;4.20;;;4.30;96.40;;;;;;5109064;27;20186;-74
2022/01/03 03:55:43;;;;;;;4.70;4.17;;;4.30;96.40;;;;;;5091022;28;20187;-74
2022/01/03 03:58:08;;;;;;;8.03;5.00;;;4.30;96.30;;;;;;5089657;28;20220;-73
2022/01/03 04:00:34;;;;;;;4.73;4.07;;;4.30;96.00;;;;;;5115823;28;20177;-73
2022/01/03 04:03:00;;;;;;;8.40;4.60;;;4.30;95.90;;;;;;5111838;28;20177;-73
2022/01/03 04:05:26;;;;;;;3.57;3.33;;;4.40;95.80;;;;;;5109399;28;20686;-76
2022/01/03 04:07:52;;;;;;;11.07;4.27;;;4.40;95.80;;;;;;5109133;28;20181;-73
2022/01/03 04:10:17;;;;;;;6.67;3.77;;;4.40;95.50;;;;;;5110484;28;20185;-74
2022/01/03 04:12:44;;;;;;;5.13;4.03;;;4.40;95.30;;;;;;5113272;28;20176;-73
2022/01/03 04:15:11;;;;;;;9.70;3.63;;;4.40;95.20;;;;;;5110437;28;20261;-73
2022/01/03 04:17:37;;;;;;;3.33;3.13;;;4.30;95.20;;;;;;5111300;28;20687;-74
2022/01/03 04:20:05;;;;;;;4.60;4.17;;;4.30;95.30;;;;;;5112337;28;20215;-74
2022/01/03 04:22:31;;;;;;;5.87;3.70;;;4.30;95.40;;;;;;5111453;28;20183;-74
2022/01/03 04:24:57;;;;;;;4.97;3.73;;;4.30;95.40;;;;;;5113804;28;20177;-75
2022/01/03 04:27:23;;;;;;;10.83;4.37;;;4.30;95.30;;;;;;5111860;28;20241;-73
2022/01/03 04:29:49;;;;;;;5.90;3.63;;;4.30;95.60;;;;;;5113119;28;20181;-74
2022/01/03 04:32:15;;;;;;;5.23;4.27;;;;;;;;;;5110103;28;20209;-75
2022/01/03 04:34:41;;;;;;;8.70;4.40;;;4.30;95.50;;;;;;5113332;28;20252;-73
2022/01/03 04:37:07;;;;;;;4.87;3.17;;;;;;;;;;5107580;28;20177;-73
2022/01/03 04:39:33;;;;;;;6.70;3.63;;;;;;;;;;5107656;28;21001;-73
2022/01/03 04:41:59;;;;;;;6.90;3.97;;;;;;;;;;5113586;28;20185;-73
2022/01/03 04:44:25;;;;;;;4.70;3.87;;;;;;;;;;5111390;28;20177;-74
2022/01/03 04:46:53;;;;;;;6.73;4.07;;;4.30;95.40;;;;;;5115887;28;20173;-73
2022/01/03 04:49:18;;;;;;;4.33;3.87;;;4.30;95.30;;;;;;5089780;28;20209;-74
2022/01/03 04:51:44;;;;;;;11.57;5.50;;;4.30;95.20;;;;;;5113508;28;20559;-75
2022/01/03 04:54:10;;;;;;;6.50;5.10;;;;;;;;;;5110614;28;20181;-75
2022/01/03 04:56:36;;;;;;;9.33;4.83;;;;;;;;;;5107921;28;20184;-74
2022/01/03 04:59:03;;;;;;;6.77;4.90;;;4.20;95.30;;;;;;5115680;28;20671;-74
2022/01/03 05:01:28;;;;;;;4.57;4.03;;;4.20;95.30;;;;;;5111908;28;20752;-74
2022/01/03 05:03:54;;;;;;;6.53;4.60;;;4.20;95.30;;;;;;5109479;28;20178;-74
2022/01/03 05:06:20;;;;;;;7.67;4.23;;;4.10;95.30;;;;;;5117242;27;20185;-74
2022/01/03 05:08:46;;;;;;;5.27;4.80;;;4.10;95.30;;;;;;5115055;27;20247;-74
2022/01/03 05:11:13;;;;;;;5.53;4.03;;;4.00;95.30;;;;;;5116330;27;20264;-74
2022/01/03 05:13:39;;;;;;;9.23;4.27;;;;;;;;;;5109841;27;20292;-74
2022/01/03 05:16:05;;;;;;;4.40;4.00;;;4.00;96.10;;;;;;5117645;27;20192;-74
2022/01/03 05:18:31;;;;;;;6.70;3.03;;;4.00;96.20;;;;;;5112841;27;20310;-74
2022/01/03 05:20:57;;;;;;;3.40;3.10;;;3.90;96.60;;;;;;5122038;27;20336;-75
2022/01/03 05:23:23;;;;;;;7.43;4.07;;;3.90;96.90;;;;;;5110167;27;20181;-74
2022/01/03 05:25:49;;;;;;;5.60;4.10;;;3.90;97.00;;;;;;5120159;27;20734;-73
2022/01/03 05:28:15;;;;;;;4.57;3.00;;;3.90;97.20;;;;;;5113915;27;20843;-74
2022/01/03 05:30:42;;;;;;;11.60;2.40;;;3.90;96.90;;;;;;5119230;27;20272;-75
2022/01/03 05:33:08;;;;;;;4.37;3.30;;;;;;;;;;5114827;27;20181;-75
2022/01/03 05:35:34;;;;;;;2.77;2.53;;;3.90;96.90;;;;;;5116338;27;20568;-74
2022/01/03 05:38:00;;;;;;;7.53;3.17;;;;;;;;;;5115311;27;20205;-75
2022/01/03 05:40:26;;;;;;;7.70;3.73;;;3.90;96.90;;;;;;5116195;27;20210;-77
2022/01/03 05:42:52;;;;;;;4.20;3.50;;;3.90;96.90;;;;;;5116173;27;20671;-76
2022/01/03 05:45:18;;;;;;;4.03;3.63;;;3.90;96.90;;;;;;5113616;27;20173;-75
2022/01/03 05:47:46;;;;;;;5.03;2.70;;;3.90;96.90;;;;;;5112854;27;20192;-75
2022/01/03 05:50:16;;;;;;;2.70;2.17;;;3.90;96.70;;;;;;5097156;27;20334;-75
2022/01/03 05:52:42;;;;;;;3.33;2.50;;;3.90;96.60;;;;;;5116720;27;20173;-75
2022/01/03 05:55:09;;;;;;;3.43;2.53;;;3.90;96.30;;;;;;5115382;27;20191;-75
2022/01/03 05:57:35;;;;;;;6.13;3.23;;;;;;;;;;5117721;27;20197;-75
2022/01/03 06:00:03;;;;;;;7.20;3.87;;;3.90;96.20;;;;;;5115274;27;20181;-75
2022/01/03 06:02:34;;;;;;;4.53;4.00;;;3.90;96.00;;;;;;5115216;27;20216;-75
2022/01/03 06:05:02;;;;;;;3.93;3.53;;;;;;;;;;5114142;27;20615;-75
2022/01/03 06:07:28;;;;;;;4.00;3.50;;;;;;;;;;5096340;27;20172;-75
2022/01/03 06:09:54;;;;;;;4.20;3.83;;;3.80;96.00;;;;;;5116449;27;20760;-75
2022/01/03 06:12:20;;;;;;;5.47;3.63;;;3.80;96.20;;;;;;5117292;27;20256;-75
2022/01/03 06:14:47;;;;;;;4.97;3.33;;;3.80;96.50;;;;;;5095437;27;20319;-74
2022/01/03 06:17:14;;;;;;;6.67;4.20;;;3.70;96.50;;;;;;5112905;27;20592;-74
2022/01/03 06:19:41;;;;;;;5.40;3.80;;;3.80;96.60;;;;;;5118875;27;20671;-73
2022/01/03 06:22:08;;;;;;;3.97;3.63;;;3.80;96.80;;;;;;5108739;27;20193;-74
2022/01/03 06:24:37;;;;;;;3.97;3.33;;;3.80;96.80;;;;;;5088084;28;20208;-73
2022/01/03 06:27:03;;;;;;;4.33;3.27;;;3.80;96.80;;;;;;5119432;27;20994;-73
2022/01/03 06:29:29;;;;;;;2.97;2.70;;;3.90;96.90;;;;;;5111023;27;20182;-73
2022/01/03 06:31:55;;;;;;;5.60;3.67;;;3.90;96.90;;;;;;5110693;27;20174;-75
2022/01/03 06:34:21;;;;;;;3.87;3.43;;;;;;;;;;5091498;27;20262;-74
2022/01/03 06:36:47;;;;;;;3.80;3.40;;;;;;;;;;5106223;27;20268;-74
2022/01/03 06:39:13;;;;;;;4.90;4.10;;;4.00;96.70;;;;;;5110300;27;20237;-74
2022/01/03 06:41:40;;;;;;;3.87;3.23;;;4.10;96.60;;;;;;5114311;27;20560;-74
2022/01/03 06:44:06;;;;;;;3.00;2.80;;;4.10;96.60;;;;;;5105548;27;20184;-75
2022/01/03 06:46:32;;;;;;;4.60;4.00;;;4.10;96.60;;;;;;5114467;27;20185;-74
2022/01/03 06:49:00;;;;;;;11.00;3.70;;;;;;;;;;5110003;27;20193;-75
2022/01/03 06:51:31;;;;;;;5.87;5.20;;;4.30;96.60;;;;;;5096382;27;21122;-75
2022/01/03 06:53:57;;;;;;;5.70;4.30;;;4.40;96.80;;;;;;5096319;27;20184;-74
2022/01/03 06:56:23;;;;;;;4.50;4.00;;;4.60;97.20;;;;;;5117239;27;20684;-74
2022/01/03 06:58:49;;;;;;;5.77;4.67;;;;;;;;;;5087667;27;20734;-74
2022/01/03 07:01:15;;;;;;;5.30;4.57;;;;;;;;;;5115398;27;20877;-74
2022/01/03 07:03:41;;;;;;;7.93;4.87;;;;;;;;;;5114567;27;20193;-75
2022/01/03 07:06:07;;;;;;;6.03;5.43;;;;;;;;;;5113353;27;20188;-75
2022/01/03 07:08:33;;;;;;;8.57;5.87;;;;;;;;;;5114519;27;20257;-76
2022/01/03 07:10:59;;;;;;;12.07;5.63;;;;;;;;;;5112595;27;20738;-77
2022/01/03 07:13:27;;;;;;;8.63;6.03;;;;;;;;;;5111956;27;20185;-76
2022/01/03 07:18:56;;;;;;;8.33;4.90;;;8.40;92.80;;;;;;5028906;28;20281;-76
2022/01/03 07:21:27;;;;;;;8.47;6.50;;;8.80;90.60;;;;;;5022114;28;20179;-76
2022/01/03 07:23:53;;;;;;;10.93;7.07;;;8.90;90.60;;;;;;5030166;28;20207;-76
2022/01/03 07:26:19;;;;;;;7.07;6.00;;;9.70;88.50;;;;;;5025788;28;20929;-76
2022/01/03 07:28:45;;;;;;;9.80;6.40;;;10.10;86.70;;;;;;5027085;28;20188;-77
2022/01/03 07:31:10;;;;;;;7.65;5.75;;;10.30;83.50;;;;;;5027530;28;20195;-76
2022/01/03 07:33:36;;;;;;;8.85;6.45;;;10.40;83.50;;;;;;5030287;28;20775;-77
2022/01/03 07:36:02;;;;;;;11.63;6.82;;;10.60;83.50;;;;;;5032165;28;20188;-76
2022/01/03 07:38:28;;;;;;;8.60;6.97;;;10.90;83.40;;;;;;5018813;28;20258;-77
2022/01/03 07:40:54;;;;;;;10.80;6.45;;;11.30;82.70;;;;;;5027650;28;20184;-77
2022/01/03 07:43:20;;;;;;;10.07;5.95;;;11.80;83.50;;;;;;5029637;28;20184;-77
2022/01/03 07:45:46;;;;;;;7.78;6.80;;;12.30;82.50;;;;;;5026732;28;20275;-77
2022/01/03 07:48:11;;;;;;;10.52;6.72;;;12.70;80.80;;;;;;5026267;28;20662;-77
2022/01/03 07:50:37;;;;;;;10.50;6.50;;;13.10;79.80;;;;;;5099244;27;20185;-76
2022/01/03 07:53:04;;;;;;;9.93;6.95;;;13.50;78.70;;;;;;5108662;28;20664;-77
2022/01/03 07:55:30;;;;;;;9.93;6.90;;;13.90;78.30;;;;;;5092061;28;20173;-78
2022/01/03 07:57:56;;;;;;;6.88;6.28;;;14.20;76.10;;;;;;5090668;28;20229;-76
2022/01/03 08:00:22;;;;;;;7.80;6.82;;;14.40;72.70;;;;;;5115148;27;20254;-77
2022/01/03 08:02:48;;;;;;;9.10;6.65;;;14.40;72.70;;;;;;5101459;28;20252;-77
2022/01/03 08:05:15;;;;;;;14.65;7.40;;;14.20;72.50;;;;;;5108973;28;20172;-76
2022/01/03 08:07:47;;;;;;;8.57;6.50;;;14.00;73.20;;;;;;5112840;28;20178;-77
2022/01/03 08:10:15;;;;;;;8.85;7.13;;;14.00;73.40;;;;;;5110305;28;20246;-77
2022/01/03 08:12:41;;;;;;;8.52;6.57;;;14.30;73.90;;;;;;5107885;28;20174;-77
2022/01/03 08:15:08;;;;;;;7.68;5.97;;;14.70;74.40;;;;;;5111922;28;20269;-78
2022/01/03 08:17:34;;;;;;;9.30;7.07;;;15.30;74.70;;;;;;5108674;28;20181;-76
2022/01/03 08:20:00;;;;;;;14.85;7.45;;;15.90;72.90;;;;;;5094783;28;20690;-77
2022/01/03 08:22:26;;;;;;;10.48;7.88;;;16.50;71.20;;;;;;5109320;28;20196;-76
2022/01/03 08:24:52;;;;;;;11.40;6.90;;;17.10;71.50;;;;;;5064880;28;20227;-76
2022/01/03 08:27:18;;;;;;;11.30;7.80;;;17.70;71.40;;;;;;5062272;28;20187;-76
2022/01/03 08:29:44;;;;;;;9.05;7.63;;;18.30;66.70;;;;;;5063563;28;20244;-76
2022/01/03 08:32:10;;;;;;;9.18;7.43;;;18.90;68.40;;;;;;5063684;28;20190;-77
2022/01/03 08:34:36;;;;;;;11.90;8.23;;;19.40;65.60;;;;;;5060676;28;20187;-75
2022/01/03 08:37:01;;;;;;;9.93;6.65;;;19.90;64.10;;;;;;5063862;28;20179;-76
2022/01/03 08:39:28;;;;;;;15.13;7.20;;;20.30;63.50;;;;;;5062526;28;20974;-75
2022/01/03 08:41:54;;;;;;;7.78;7.05;;;20.60;62.20;;;;;;5064368;28;20182;-76
2022/01/03 08:44:21;;;;;;;9.18;7.68;;;20.90;61.40;;;;;;5069559;28;20205;-76
2022/01/03 08:46:48;;;;;;;8.13;7.18;;;21.10;60.70;;;;;;5064790;28;20185;-76
2022/01/03 08:49:14;;;;;;;7.43;6.50;;;21.10;59.20;;;;;;5068056;28;20218;-76
2022/01/03 08:51:40;;;;;;;10.15;8.25;;;21.10;60.00;;;;;;5065781;28;20225;-78
2022/01/03 08:54:06;;;;;;;8.50;7.35;;;20.90;60.00;;;;;;5068112;28;20183;-76
2022/01/03 08:56:32;;;;;;;9.32;7.85;;;20.30;59.90;;;;;;5065390;28;20187;-76
2022/01/03 08:58:58;;;;;;;8.90;6.45;;;19.80;60.40;;;;;;5065144;28;20218;-76
2022/01/03 09:01:23;;;;;;;12.07;7.55;;;19.40;61.70;;;;;;5063055;28;20179;-78
2022/01/03 09:03:50;;;;;;;9.48;6.80;;;19.40;62.40;;;;;;5062832;28;20736;-78
2022/01/03 09:06:17;;;;;;;6.32;5.32;;;19.60;62.10;;;;;;5061854;28;21233;-75
2022/01/03 09:08:44;;;;;;;8.68;6.90;;;19.90;62.10;;;;;;5064515;28;20195;-75
2022/01/03 09:11:09;;;;;;;6.80;6.10;;;20.10;61.30;;;;;;5059951;28;20266;-77
2022/01/03 09:13:36;;;;;;;9.57;6.43;;;20.50;61.30;;;;;;5066289;28;20266;-77
2022/01/03 09:16:06;;;;;;;7.95;7.15;;;20.80;60.70;;;;;;5063458;28;20179;-76
2022/01/03 09:18:33;;;;;;;10.20;6.43;;;21.20;60.60;;;;;;5064810;28;20217;-77
2022/01/03 09:20:59;;;;;;;7.82;7.00;;;21.60;60.30;;;;;;5064263;28;20190;-77
2022/01/03 09:23:29;;;;;;;8.88;6.85;;;21.70;59.20;;;;;;5063534;28;20179;-77
2022/01/03 09:28:56;;;;;;;9.30;7.53;;;21.90;56.30;;;;;;5066202;28;20617;-75
2022/01/03 09:31:22;;;;;;;9.35;7.30;;;22.30;59.50;;;;;;5081507;28;20191;-76
2022/01/03 09:33:47;;;;;;;8.80;7.90;;;22.90;59.00;;;;;;5059177;28;20197;-75
2022/01/03 09:36:13;;;;;;;9.27;7.53;;;23.20;57.80;;;;;;5065180;28;20179;-75
2022/01/03 09:38:39;;;;;;;9.05;8.00;;;23.30;56.70;;;;;;5062691;28;20219;-77
2022/01/03 09:41:07;;;;;;;11.10;8.23;;;23.10;56.20;;;;;;5066453;28;20315;-77
2022/01/03 09:43:41;;;;;;;10.68;9.05;;;22.80;55.50;;;;;;5067100;28;20183;-75
2022/01/03 09:46:10;;;;;;;12.70;9.70;;;22.30;55.90;;;;;;5062402;28;20653;-75
2022/01/03 09:48:41;;;;;;;12.85;9.23;;;21.80;55.60;;;;;;5067939;28;20274;-75
2022/01/03 09:51:07;;;;;;;15.77;11.13;;;21.10;57.10;;;;;;5065041;28;20199;-76
2022/01/03 09:53:34;;;;;;;20.63;12.80;;;20.40;58.70;;;;;;5063875;28;20562;-77
2022/01/03 09:56:00;;;;;;;21.50;13.45;;;19.90;59.80;;;;;;5060038;28;20207;-78
2022/01/03 09:58:26;;;;;;;15.82;12.63;;;19.60;60.40;;;;;;5061047;28;20293;-74
2022/01/03 10:00:52;;;;;;;20.67;12.75;;;19.40;59.80;;;;;;5062382;28;20231;-79
2022/01/03 10:03:19;;;;;;;15.43;11.20;;;19.20;60.30;;;;;;5065118;28;20183;-78
2022/01/03 10:05:45;;;;;;;15.85;10.75;;;18.80;60.80;;;;;;5064285;28;20183;-76
2022/01/03 10:08:10;;;;;;;15.65;11.07;;;18.60;60.90;;;;;;5062203;28;20179;-79
2022/01/03 10:10:36;;;;;;;16.90;10.50;;;18.50;61.80;;;;;;5061872;28;20187;-77
2022/01/03 10:13:02;;;;;;;16.60;10.60;;;18.30;61.90;;;;;;5062557;28;20603;-79
2022/01/03 10:15:29;;;;;;;18.38;10.60;;;18.30;62.00;;;;;;5064693;28;20175;-79
2022/01/03 10:17:55;;;;;;;16.17;10.93;;;18.40;62.50;;;;;;5065112;28;20226;-77
2022/01/03 10:20:21;;;;;;;11.43;9.85;;;18.40;60.50;;;;;;5062886;28;20664;-77
2022/01/03 10:22:47;;;;;;;12.68;9.82;;;18.40;61.20;;;;;;5062317;28;20975;-78
2022/01/03 10:25:21;;;;;;;14.98;11.45;;;18.40;62.30;;;;;;5066349;28;20179;-78
2022/01/03 10:27:54;;;;;;;16.35;11.43;;;18.40;62.30;;;;;;5065777;28;20228;-78
2022/01/03 10:30:43;;;;;;;18.17;10.70;;;18.60;62.10;;;;;;5065840;28;20695;-78
2022/01/03 10:33:12;;;;;;;16.73;11.77;;;18.70;62.10;;;;;;5065587;28;20281;-76
2022/01/03 10:35:46;;;;;;;22.33;13.07;;;19.00;62.10;;;;;;5066597;28;20207;-78
2022/01/03 10:38:30;;;;;;;18.73;13.40;;;19.20;61.70;;;;;;5065659;28;20297;-77
2022/01/03 10:41:16;;;;;;;21.05;13.70;;;19.40;60.60;;;;;;5065499;28;20189;-77
2022/01/03 10:43:43;;;;;;;19.23;12.95;;;19.60;60.50;;;;;;5064721;28;20179;-77
2022/01/03 10:46:33;;;;;;;21.30;13.45;;;19.40;60.00;;;;;;5067841;28;20209;-76
2022/01/03 10:49:15;;;;;;;28.63;15.00;;;19.30;60.20;;;;;;5066711;28;20264;-78
2022/01/03 10:51:42;;;;;;;23.77;14.02;;;19.10;60.00;;;;;;5067051;28;21044;-76
2022/01/03 10:54:10;;;;;;;20.05;14.57;;;18.80;61.10;;;;;;5064761;28;20266;-77
2022/01/03 10:56:39;;;;;;;20.65;14.20;;;18.80;61.40;;;;;;5067718;28;20187;-76
2022/01/03 10:59:14;;;;;;;18.63;13.90;;;18.70;61.50;;;;;;5064374;28;20727;-76
2022/01/03 11:01:41;;;;;;;20.08;13.18;;;18.80;61.80;;;;;;5065946;28;21043;-77
2022/01/03 11:04:08;;;;;;;16.00;12.15;;;18.90;61.10;;;;;;5065098;28;20183;-78
2022/01/03 11:11:49;;;;;;;21.73;11.73;;;18.20;61.00;;;;;;5064811;28;20194;-76
2022/01/03 11:14:41;;;;;;;20.92;12.07;;;18.10;62.80;;;;;;5064485;28;20269;-77
2022/01/03 11:17:28;;;;;;;18.45;12.45;;;18.10;61.70;;;;;;5063814;28;20191;-77
2022/01/03 11:19:59;;;;;;;18.02;12.25;;;18.20;62.30;;;;;;5065369;28;20295;-76
2022/01/03 11:22:44;;;;;;;15.85;10.98;;;18.40;62.80;;;;;;5066305;28;20190;-77
2022/01/03 11:25:10;;;;;;;14.88;11.50;;;18.70;62.40;;;;;;5064513;28;20166;-77
2022/01/03 11:27:40;;;;;;;16.10;11.00;;;19.10;62.20;;;;;;5064704;28;20179;-77
2022/01/03 11:30:07;;;;;;;18.70;12.32;;;19.60;61.60;;;;;;5065848;28;20556;-77
2022/01/03 11:32:36;;;;;;;17.30;11.02;;;20.20;60.90;;;;;;5064919;28;20202;-77
2022/01/03 11:35:02;;;;;;;14.15;11.00;;;20.60;59.80;;;;;;5063394;28;20179;-78
2022/01/03 11:37:32;;;;;;;22.83;13.77;;;20.70;59.10;;;;;;5063191;28;21044;-77
2022/01/03 11:40:00;;;;;;;17.13;11.70;;;20.70;57.90;;;;;;5061450;28;20664;-78
2022/01/03 11:42:26;;;;;;;15.60;11.90;;;20.70;58.70;;;;;;5063334;28;20187;-78
2022/01/03 11:44:53;;;;;;;18.55;12.10;;;20.60;59.10;;;;;;5063903;28;20179;-78
2022/01/03 11:47:19;;;;;;;20.20;12.45;;;20.40;59.00;;;;;;5063441;28;20191;-77
2022/01/03 11:49:45;;;;;;;16.02;12.02;;;20.50;59.40;;;;;;5065293;28;20179;-77
2022/01/03 11:52:15;;;;;;;18.13;12.23;;;20.50;59.20;;;;;;5063173;28;20171;-77
2022/01/03 11:54:42;;;;;;;19.20;12.32;;;20.80;58.30;;;;;;5063700;28;20214;-78
2022/01/03 11:57:39;;;;;;;17.77;11.02;;;21.30;58.10;;;;;;5064257;28;20206;-77
2022/01/03 12:05:50;;;;;;;20.55;11.10;;;21.90;57.40;;;;;;5064815;28;20267;-76
2022/01/03 12:08:32;;;;;;;14.25;11.25;;;22.00;56.10;;;;;;5066006;28;20932;-77
2022/01/03 12:11:00;;;;;;;16.05;10.90;;;22.30;57.20;;;;;;5062967;28;20179;-77
2022/01/03 12:14:10;;;;;;;15.50;11.05;;;22.30;57.40;;;;;;5064503;28;20822;-78
2022/01/03 12:16:56;;;;;;;14.75;10.60;;;22.50;55.60;;;;;;5042229;28;20286;-77
2022/01/03 12:19:30;;;;;;;17.10;11.75;;;22.60;56.20;;;;;;5039779;28;20313;-77
2022/01/03 12:22:06;;;;;;;16.60;10.50;;;22.90;57.80;;;;;;5044848;28;20187;-78
2022/01/03 12:24:32;;;;;;;14.45;10.95;;;23.00;56.50;;;;;;5028596;28;20329;-78
2022/01/03 12:27:12;;;;;;;20.25;11.50;;;23.20;54.60;;;;;;5044316;28;20279;-78
2022/01/03 12:29:56;;;;;;;14.18;11.40;;;23.30;55.60;;;;;;5047427;28;20187;-77
2022/01/03 12:32:35;;;;;;;17.10;10.48;;;23.40;55.10;;;;;;5028244;28;20188;-78
2022/01/03 12:35:07;;;;;;;15.15;10.52;;;23.30;56.10;;;;;;5027198;28;20176;-78
2022/01/03 12:37:34;;;;;;;15.50;10.27;;;23.00;56.40;;;;;;5027884;28;20178;-78
2022/01/03 12:40:05;;;;;;;15.73;11.07;;;22.60;55.80;;;;;;5045031;28;20332;-77
2022/01/03 12:42:48;;;;;;;13.13;10.25;;;22.30;57.20;;;;;;5044962;28;20195;-78
2022/01/03 12:45:15;;;;;;;16.10;10.68;;;22.00;56.40;;;;;;5028118;28;20763;-78
2022/01/03 12:47:41;;;;;;;14.07;10.88;;;21.60;57.40;;;;;;5044421;28;20313;-78
2022/01/03 12:50:29;;;;;;;14.65;10.60;;;21.30;57.70;;;;;;5039762;28;20175;-78
2022/01/03 12:52:58;;;;;;;17.75;11.40;;;21.00;58.20;;;;;;5061773;28;20195;-77
2022/01/03 12:55:48;;;;;;;15.88;10.07;;;21.00;58.30;;;;;;5065238;28;20681;-78
2022/01/03 12:58:14;;;;;;;11.07;9.52;;;;;;;;;;5053565;28;20298;-78
2022/01/03 13:00:41;;;;;;;13.52;10.27;;;20.80;58.50;;;;;;5073494;28;20190;-78
2022/01/03 13:03:28;;;;;;;20.50;10.88;;;20.70;59.40;;;;;;5070934;28;20194;-78
2022/01/03 13:06:09;;;;;;;17.27;10.73;;;20.80;58.80;;;;;;5072415;28;20656;-78
2022/01/03 13:08:44;;;;;;;13.85;9.82;;;20.90;59.00;;;;;;5058405;28;20186;-78
2022/01/03 13:11:14;;;;;;;14.95;10.48;;;21.10;58.70;;;;;;5074154;28;20186;-78
2022/01/03 13:13:41;;;;;;;12.75;9.65;;;21.10;59.40;;;;;;5064830;28;20599;-76
2022/01/03 13:16:28;;;;;;;15.90;9.23;;;21.20;59.10;;;;;;5072361;28;20283;-77
2022/01/03 13:18:56;;;;;;;16.33;10.02;;;21.30;58.10;;;;;;5070516;28;20843;-78
2022/01/03 13:21:25;;;;;;;22.70;10.20;;;21.30;58.30;;;;;;5067252;28;20219;-79
2022/01/03 13:24:08;;;;;;;15.52;9.95;;;21.00;59.40;;;;;;5050627;28;20782;-77